sensor_id;sensor_type;location;lat;lon;timestamp;temperature;humidity
7360;DHT22;3720;48.274;7.796;2022-11-20T00:02:05;7.90;99.90
7360;DHT22;3720;48.274;7.796;2022-11-20T00:04:37;7.90;99.90
7360;DHT22;3720;48.274;7.796;2022-11-20T00:07:09;8.00;99.90
7360;DHT22;3720;48.274;7.796;2022-11-20T00:09:41;8.00;99.90
7360;DHT22;3720;48.274;7.796;2022-11-20T00:12:15;7.90;99.90
7360;DHT22;3720;48.274;7.796;2022-11-20T00:14:46;7.90;99.90
7360;DHT22;3720;48.274;7.796;2022-11-20T00:17:18;8.00;99.90
7360;DHT22;3720;48.274;7.796;2022-11-20T00:19:50;8.00;99.90
7360;DHT22;3720;48.274;7.796;2022-11-20T00:22:22;8.00;99.90
7360;DHT22;3720;48.274;7.796;2022-11-20T00:24:54;8.10;99.90
7360;DHT22;3720;48.274;7.796;2022-11-20T00:27:29;8.10;99.90
7360;DHT22;3720;48.274;7.796;2022-11-20T00:30:00;8.10;99.90
7360;DHT22;3720;48.274;7.796;2022-11-20T00:32:32;8.00;99.90
7360;DHT22;3720;48.274;7.796;2022-11-20T00:35:05;8.00;99.90
7360;DHT22;3720;48.274;7.796;2022-11-20T00:37:36;8.00;99.90
7360;DHT22;3720;48.274;7.796;2022-11-20T00:40:09;8.00;99.90
7360;DHT22;3720;48.274;7.796;2022-11-20T00:42:43;8.00;99.90
7360;DHT22;3720;48.274;7.796;2022-11-20T00:45:15;7.90;99.90
7360;DHT22;3720;48.274;7.796;2022-11-20T00:47:47;7.90;99.90
7360;DHT22;3720;48.274;7.796;2022-11-20T00:50:18;7.90;99.90
7360;DHT22;3720;48.274;7.796;2022-11-20T00:52:50;7.90;99.90
7360;DHT22;3720;48.274;7.796;2022-11-20T00:55:22;7.90;99.90
7360;DHT22;3720;48.274;7.796;2022-11-20T00:57:55;8.00;99.90
7360;DHT22;3720;48.274;7.796;2022-11-20T01:00:27;8.00;99.90
7360;DHT22;3720;48.274;7.796;2022-11-20T01:02:59;8.00;99.90
7360;DHT22;3720;48.274;7.796;2022-11-20T01:05:34;8.00;99.90
7360;DHT22;3720;48.274;7.796;2022-11-20T01:08:06;7.90;99.90
7360;DHT22;3720;48.274;7.796;2022-11-20T01:10:38;8.00;99.90
7360;DHT22;3720;48.274;7.796;2022-11-20T01:13:11;7.90;99.90
7360;DHT22;3720;48.274;7.796;2022-11-20T01:16:02;7.90;99.90
7360;DHT22;3720;48.274;7.796;2022-11-20T01:18:35;7.80;99.90
7360;DHT22;3720;48.274;7.796;2022-11-20T01:21:08;7.80;99.90
7360;DHT22;3720;48.274;7.796;2022-11-20T01:23:41;7.80;99.90
7360;DHT22;3720;48.274;7.796;2022-11-20T01:26:15;7.80;99.90
7360;DHT22;3720;48.274;7.796;2022-11-20T01:28:49;7.80;99.90
7360;DHT22;3720;48.274;7.796;2022-11-20T01:31:23;7.70;99.90
7360;DHT22;3720;48.274;7.796;2022-11-20T01:33:56;7.70;99.90
7360;DHT22;3720;48.274;7.796;2022-11-20T01:36:30;7.70;99.90
7360;DHT22;3720;48.274;7.796;2022-11-20T01:39:03;7.80;99.90
7360;DHT22;3720;48.274;7.796;2022-11-20T01:41:36;7.70;99.90
7360;DHT22;3720;48.274;7.796;2022-11-20T01:44:47;7.70;99.90
7360;DHT22;3720;48.274;7.796;2022-11-20T01:47:27;7.70;99.90
7360;DHT22;3720;48.274;7.796;2022-11-20T01:50:04;7.70;99.90
7360;DHT22;3720;48.274;7.796;2022-11-20T01:52:41;7.70;99.90
7360;DHT22;3720;48.274;7.796;2022-11-20T01:55:19;7.70;99.90
7360;DHT22;3720;48.274;7.796;2022-11-20T01:57:51;7.70;99.90
7360;DHT22;3720;48.274;7.796;2022-11-20T02:00:24;7.70;99.90
7360;DHT22;3720;48.274;7.796;2022-11-20T02:02:58;7.70;99.90
7360;DHT22;3720;48.274;7.796;2022-11-20T02:05:33;7.70;99.90
7360;DHT22;3720;48.274;7.796;2022-11-20T02:08:07;7.60;99.90
7360;DHT22;3720;48.274;7.796;2022-11-20T02:10:39;7.60;99.90
7360;DHT22;3720;48.274;7.796;2022-11-20T02:13:11;7.70;99.90
7360;DHT22;3720;48.274;7.796;2022-11-20T02:16:02;7.80;99.90
7360;DHT22;3720;48.274;7.796;2022-11-20T02:18:34;7.80;99.90
7360;DHT22;3720;48.274;7.796;2022-11-20T02:21:08;7.80;99.90
7360;DHT22;3720;48.274;7.796;2022-11-20T02:24:00;7.70;99.90
7360;DHT22;3720;48.274;7.796;2022-11-20T02:26:34;7.70;99.90
7360;DHT22;3720;48.274;7.796;2022-11-20T02:29:08;7.70;99.90
7360;DHT22;3720;48.274;7.796;2022-11-20T02:31:42;7.60;99.90
7360;DHT22;3720;48.274;7.796;2022-11-20T02:34:15;7.60;99.90
7360;DHT22;3720;48.274;7.796;2022-11-20T02:36:48;7.60;99.90
7360;DHT22;3720;48.274;7.796;2022-11-20T02:39:24;7.50;99.90
7360;DHT22;3720;48.274;7.796;2022-11-20T02:41:57;7.50;99.90
7360;DHT22;3720;48.274;7.796;2022-11-20T02:44:29;7.50;99.90
7360;DHT22;3720;48.274;7.796;2022-11-20T02:47:00;7.50;99.90
7360;DHT22;3720;48.274;7.796;2022-11-20T02:49:32;7.50;99.90
7360;DHT22;3720;48.274;7.796;2022-11-20T02:52:04;7.50;99.90
7360;DHT22;3720;48.274;7.796;2022-11-20T02:54:38;7.50;99.90
7360;DHT22;3720;48.274;7.796;2022-11-20T02:57:09;7.50;99.90
7360;DHT22;3720;48.274;7.796;2022-11-20T02:59:41;7.50;99.90
7360;DHT22;3720;48.274;7.796;2022-11-20T03:02:13;7.50;99.90
7360;DHT22;3720;48.274;7.796;2022-11-20T03:04:45;7.60;99.90
7360;DHT22;3720;48.274;7.796;2022-11-20T03:07:17;7.60;99.90
7360;DHT22;3720;48.274;7.796;2022-11-20T03:09:50;7.60;99.90
7360;DHT22;3720;48.274;7.796;2022-11-20T03:12:22;7.60;99.90
7360;DHT22;3720;48.274;7.796;2022-11-20T03:14:53;7.60;99.90
7360;DHT22;3720;48.274;7.796;2022-11-20T03:17:25;7.60;99.90
7360;DHT22;3720;48.274;7.796;2022-11-20T03:19:57;7.60;99.90
7360;DHT22;3720;48.274;7.796;2022-11-20T03:22:29;7.60;99.90
7360;DHT22;3720;48.274;7.796;2022-11-20T03:25:03;7.60;99.90
7360;DHT22;3720;48.274;7.796;2022-11-20T03:27:35;7.60;99.90
7360;DHT22;3720;48.274;7.796;2022-11-20T03:30:08;7.60;99.90
7360;DHT22;3720;48.274;7.796;2022-11-20T03:32:40;7.60;99.90
7360;DHT22;3720;48.274;7.796;2022-11-20T03:35:12;7.60;99.90
7360;DHT22;3720;48.274;7.796;2022-11-20T03:37:43;7.60;99.90
7360;DHT22;3720;48.274;7.796;2022-11-20T03:40:17;7.60;99.90
7360;DHT22;3720;48.274;7.796;2022-11-20T03:42:49;7.60;99.90
7360;DHT22;3720;48.274;7.796;2022-11-20T03:45:21;7.60;99.90
7360;DHT22;3720;48.274;7.796;2022-11-20T03:47:53;7.60;99.90
7360;DHT22;3720;48.274;7.796;2022-11-20T03:50:24;7.70;99.90
7360;DHT22;3720;48.274;7.796;2022-11-20T03:52:56;7.70;99.90
7360;DHT22;3720;48.274;7.796;2022-11-20T03:55:30;7.70;99.90
7360;DHT22;3720;48.274;7.796;2022-11-20T03:58:01;7.60;99.90
7360;DHT22;3720;48.274;7.796;2022-11-20T04:00:33;7.60;99.90
7360;DHT22;3720;48.274;7.796;2022-11-20T04:03:05;7.70;99.90
7360;DHT22;3720;48.274;7.796;2022-11-20T04:05:37;7.60;99.90
7360;DHT22;3720;48.274;7.796;2022-11-20T04:08:09;7.60;99.90
7360;DHT22;3720;48.274;7.796;2022-11-20T04:10:42;7.60;99.90
7360;DHT22;3720;48.274;7.796;2022-11-20T04:13:14;7.60;99.90
7360;DHT22;3720;48.274;7.796;2022-11-20T04:15:46;7.50;99.90
7360;DHT22;3720;48.274;7.796;2022-11-20T04:18:18;7.50;99.90
7360;DHT22;3720;48.274;7.796;2022-11-20T04:20:50;7.50;99.90
7360;DHT22;3720;48.274;7.796;2022-11-20T04:23:21;7.50;99.90
7360;DHT22;3720;48.274;7.796;2022-11-20T04:25:55;7.50;99.90
7360;DHT22;3720;48.274;7.796;2022-11-20T04:28:31;7.50;99.90
7360;DHT22;3720;48.274;7.796;2022-11-20T04:31:05;7.50;99.90
7360;DHT22;3720;48.274;7.796;2022-11-20T04:33:37;7.50;99.90
7360;DHT22;3720;48.274;7.796;2022-11-20T04:36:11;7.60;99.90
7360;DHT22;3720;48.274;7.796;2022-11-20T04:38:43;7.60;99.90
7360;DHT22;3720;48.274;7.796;2022-11-20T04:41:18;7.60;99.90
7360;DHT22;3720;48.274;7.796;2022-11-20T04:43:51;7.60;99.90
7360;DHT22;3720;48.274;7.796;2022-11-20T04:46:23;7.60;99.90
7360;DHT22;3720;48.274;7.796;2022-11-20T04:48:55;7.60;99.90
7360;DHT22;3720;48.274;7.796;2022-11-20T04:51:27;7.50;99.90
7360;DHT22;3720;48.274;7.796;2022-11-20T04:54:00;7.50;99.90
7360;DHT22;3720;48.274;7.796;2022-11-20T04:56:33;7.50;99.90
7360;DHT22;3720;48.274;7.796;2022-11-20T04:59:05;7.50;99.90
7360;DHT22;3720;48.274;7.796;2022-11-20T05:01:37;7.50;99.90
7360;DHT22;3720;48.274;7.796;2022-11-20T05:04:09;7.50;99.90
7360;DHT22;3720;48.274;7.796;2022-11-20T05:06:40;7.50;99.90
7360;DHT22;3720;48.274;7.796;2022-11-20T05:09:12;7.50;99.90
7360;DHT22;3720;48.274;7.796;2022-11-20T05:11:46;7.50;99.90
7360;DHT22;3720;48.274;7.796;2022-11-20T05:14:17;7.40;99.90
7360;DHT22;3720;48.274;7.796;2022-11-20T05:16:49;7.50;99.90
7360;DHT22;3720;48.274;7.796;2022-11-20T05:19:21;7.40;99.90
7360;DHT22;3720;48.274;7.796;2022-11-20T05:21:53;7.50;99.90
7360;DHT22;3720;48.274;7.796;2022-11-20T05:24:25;7.40;99.90
7360;DHT22;3720;48.274;7.796;2022-11-20T05:26:58;7.50;99.90
7360;DHT22;3720;48.274;7.796;2022-11-20T05:29:30;7.60;99.90
7360;DHT22;3720;48.274;7.796;2022-11-20T05:32:01;7.60;99.90
7360;DHT22;3720;48.274;7.796;2022-11-20T05:34:33;7.60;99.90
7360;DHT22;3720;48.274;7.796;2022-11-20T05:37:05;7.60;99.90
7360;DHT22;3720;48.274;7.796;2022-11-20T05:39:37;7.50;99.90
7360;DHT22;3720;48.274;7.796;2022-11-20T05:42:10;7.60;99.90
7360;DHT22;3720;48.274;7.796;2022-11-20T05:45:01;7.60;99.90
7360;DHT22;3720;48.274;7.796;2022-11-20T05:47:34;7.50;99.90
7360;DHT22;3720;48.274;7.796;2022-11-20T05:50:06;7.50;99.90
7360;DHT22;3720;48.274;7.796;2022-11-20T05:52:38;7.50;99.90
7360;DHT22;3720;48.274;7.796;2022-11-20T05:55:10;7.60;99.90
7360;DHT22;3720;48.274;7.796;2022-11-20T05:57:43;7.50;99.90
7360;DHT22;3720;48.274;7.796;2022-11-20T06:00:16;7.60;99.90
7360;DHT22;3720;48.274;7.796;2022-11-20T06:02:47;7.60;99.90
7360;DHT22;3720;48.274;7.796;2022-11-20T06:05:19;7.60;99.90
7360;DHT22;3720;48.274;7.796;2022-11-20T06:07:51;7.60;99.90
7360;DHT22;3720;48.274;7.796;2022-11-20T06:10:23;7.60;99.90
7360;DHT22;3720;48.274;7.796;2022-11-20T06:12:58;7.50;99.90
7360;DHT22;3720;48.274;7.796;2022-11-20T06:15:30;7.50;99.90
7360;DHT22;3720;48.274;7.796;2022-11-20T06:18:02;7.60;99.90
7360;DHT22;3720;48.274;7.796;2022-11-20T06:20:34;7.60;99.90
7360;DHT22;3720;48.274;7.796;2022-11-20T06:23:05;7.60;99.90
7360;DHT22;3720;48.274;7.796;2022-11-20T06:25:37;7.60;99.90
7360;DHT22;3720;48.274;7.796;2022-11-20T06:28:11;7.60;99.90
7360;DHT22;3720;48.274;7.796;2022-11-20T06:30:44;7.60;99.90
7360;DHT22;3720;48.274;7.796;2022-11-20T06:33:16;7.60;99.90
7360;DHT22;3720;48.274;7.796;2022-11-20T06:35:48;7.60;99.90
7360;DHT22;3720;48.274;7.796;2022-11-20T06:38:20;7.50;99.90
7360;DHT22;3720;48.274;7.796;2022-11-20T06:40:52;7.60;99.90
7360;DHT22;3720;48.274;7.796;2022-11-20T06:43:26;7.50;99.90
7360;DHT22;3720;48.274;7.796;2022-11-20T06:46:00;7.50;99.90
7360;DHT22;3720;48.274;7.796;2022-11-20T06:48:32;7.50;99.90
7360;DHT22;3720;48.274;7.796;2022-11-20T06:51:05;7.60;99.90
7360;DHT22;3720;48.274;7.796;2022-11-20T06:53:37;7.60;99.90
7360;DHT22;3720;48.274;7.796;2022-11-20T06:56:09;7.60;99.90
7360;DHT22;3720;48.274;7.796;2022-11-20T06:58:42;7.60;99.90
7360;DHT22;3720;48.274;7.796;2022-11-20T07:01:15;7.60;99.90
7360;DHT22;3720;48.274;7.796;2022-11-20T07:03:48;7.70;99.90
7360;DHT22;3720;48.274;7.796;2022-11-20T07:06:21;7.70;99.90
7360;DHT22;3720;48.274;7.796;2022-11-20T07:08:52;7.70;99.90
7360;DHT22;3720;48.274;7.796;2022-11-20T07:11:24;7.70;99.90
7360;DHT22;3720;48.274;7.796;2022-11-20T07:13:58;7.70;99.90
7360;DHT22;3720;48.274;7.796;2022-11-20T07:16:29;7.70;99.90
7360;DHT22;3720;48.274;7.796;2022-11-20T07:19:01;7.70;99.90
7360;DHT22;3720;48.274;7.796;2022-11-20T07:21:33;7.80;99.90
7360;DHT22;3720;48.274;7.796;2022-11-20T07:24:05;7.80;99.90
7360;DHT22;3720;48.274;7.796;2022-11-20T07:26:37;7.80;99.90
7360;DHT22;3720;48.274;7.796;2022-11-20T07:29:10;7.80;99.90
7360;DHT22;3720;48.274;7.796;2022-11-20T07:31:42;7.80;99.90
7360;DHT22;3720;48.274;7.796;2022-11-20T07:34:14;7.80;99.90
7360;DHT22;3720;48.274;7.796;2022-11-20T07:36:46;7.90;99.90
7360;DHT22;3720;48.274;7.796;2022-11-20T07:39:18;7.80;99.90
7360;DHT22;3720;48.274;7.796;2022-11-20T07:41:49;7.80;99.90
7360;DHT22;3720;48.274;7.796;2022-11-20T07:44:23;7.90;99.90
7360;DHT22;3720;48.274;7.796;2022-11-20T07:46:54;7.90;99.90
7360;DHT22;3720;48.274;7.796;2022-11-20T07:49:26;7.80;99.90
7360;DHT22;3720;48.274;7.796;2022-11-20T07:51:58;7.90;99.90
7360;DHT22;3720;48.274;7.796;2022-11-20T07:54:30;7.90;99.90
7360;DHT22;3720;48.274;7.796;2022-11-20T07:57:02;7.90;99.90
7360;DHT22;3720;48.274;7.796;2022-11-20T07:59:35;7.90;99.90
7360;DHT22;3720;48.274;7.796;2022-11-20T08:02:09;7.80;99.90
7360;DHT22;3720;48.274;7.796;2022-11-20T08:04:42;7.80;99.90
7360;DHT22;3720;48.274;7.796;2022-11-20T08:07:13;7.80;99.90
7360;DHT22;3720;48.274;7.796;2022-11-20T08:09:45;7.80;99.90
7360;DHT22;3720;48.274;7.796;2022-11-20T08:12:19;7.90;99.90
7360;DHT22;3720;48.274;7.796;2022-11-20T08:15:10;7.80;99.90
7360;DHT22;3720;48.274;7.796;2022-11-20T08:17:42;7.80;99.90
7360;DHT22;3720;48.274;7.796;2022-11-20T08:20:14;7.90;99.90
7360;DHT22;3720;48.274;7.796;2022-11-20T08:22:46;8.00;99.90
7360;DHT22;3720;48.274;7.796;2022-11-20T08:25:17;7.90;99.90
7360;DHT22;3720;48.274;7.796;2022-11-20T08:27:49;8.00;99.90
7360;DHT22;3720;48.274;7.796;2022-11-20T08:30:22;8.00;99.90
7360;DHT22;3720;48.274;7.796;2022-11-20T08:32:54;7.90;99.90
7360;DHT22;3720;48.274;7.796;2022-11-20T08:35:26;7.90;99.90
7360;DHT22;3720;48.274;7.796;2022-11-20T08:37:58;7.90;99.90
7360;DHT22;3720;48.274;7.796;2022-11-20T08:40:30;8.00;99.90
7360;DHT22;3720;48.274;7.796;2022-11-20T08:43:02;8.00;99.90
7360;DHT22;3720;48.274;7.796;2022-11-20T08:45:35;8.00;99.90
7360;DHT22;3720;48.274;7.796;2022-11-20T08:48:07;8.00;99.90
7360;DHT22;3720;48.274;7.796;2022-11-20T08:50:39;8.10;99.90
7360;DHT22;3720;48.274;7.796;2022-11-20T08:53:10;8.00;99.90
7360;DHT22;3720;48.274;7.796;2022-11-20T08:55:42;8.00;99.90
7360;DHT22;3720;48.274;7.796;2022-11-20T08:58:14;8.10;99.90
7360;DHT22;3720;48.274;7.796;2022-11-20T09:00:48;8.00;99.90
7360;DHT22;3720;48.274;7.796;2022-11-20T09:03:19;8.10;99.90
7360;DHT22;3720;48.274;7.796;2022-11-20T09:05:51;8.00;99.90
7360;DHT22;3720;48.274;7.796;2022-11-20T09:08:28;8.00;99.90
7360;DHT22;3720;48.274;7.796;2022-11-20T09:11:00;8.10;99.90
7360;DHT22;3720;48.274;7.796;2022-11-20T09:13:33;8.10;99.90
7360;DHT22;3720;48.274;7.796;2022-11-20T09:16:08;8.10;99.90
7360;DHT22;3720;48.274;7.796;2022-11-20T09:18:41;8.20;99.90
7360;DHT22;3720;48.274;7.796;2022-11-20T09:21:13;8.20;99.90
7360;DHT22;3720;48.274;7.796;2022-11-20T09:23:45;8.20;99.90
7360;DHT22;3720;48.274;7.796;2022-11-20T09:26:17;8.20;99.90
7360;DHT22;3720;48.274;7.796;2022-11-20T09:28:49;8.20;99.90
7360;DHT22;3720;48.274;7.796;2022-11-20T09:31:24;8.30;99.90
7360;DHT22;3720;48.274;7.796;2022-11-20T09:33:56;8.30;99.90
7360;DHT22;3720;48.274;7.796;2022-11-20T09:36:28;8.40;99.90
7360;DHT22;3720;48.274;7.796;2022-11-20T09:39:00;8.40;99.90
7360;DHT22;3720;48.274;7.796;2022-11-20T09:41:44;8.40;99.90
7360;DHT22;3720;48.274;7.796;2022-11-20T09:44:30;8.50;99.90
7360;DHT22;3720;48.274;7.796;2022-11-20T09:47:08;8.60;99.90
7360;DHT22;3720;48.274;7.796;2022-11-20T09:49:55;8.70;99.90
7360;DHT22;3720;48.274;7.796;2022-11-20T09:52:37;8.80;99.90
7360;DHT22;3720;48.274;7.796;2022-11-20T09:55:14;9.00;99.90
7360;DHT22;3720;48.274;7.796;2022-11-20T09:57:47;9.00;99.90
7360;DHT22;3720;48.274;7.796;2022-11-20T10:00:20;9.10;99.90
7360;DHT22;3720;48.274;7.796;2022-11-20T10:02:57;9.10;99.90
7360;DHT22;3720;48.274;7.796;2022-11-20T10:05:35;9.20;99.90
7360;DHT22;3720;48.274;7.796;2022-11-20T10:08:15;9.40;99.90
7360;DHT22;3720;48.274;7.796;2022-11-20T10:10:52;9.50;99.90
7360;DHT22;3720;48.274;7.796;2022-11-20T10:13:34;9.80;99.90
7360;DHT22;3720;48.274;7.796;2022-11-20T10:16:15;10.10;99.90
7360;DHT22;3720;48.274;7.796;2022-11-20T10:19:02;10.60;99.90
7360;DHT22;3720;48.274;7.796;2022-11-20T10:21:42;10.80;99.90
7360;DHT22;3720;48.274;7.796;2022-11-20T10:24:34;10.60;99.90
7360;DHT22;3720;48.274;7.796;2022-11-20T10:27:22;10.60;99.90
7360;DHT22;3720;48.274;7.796;2022-11-20T10:30:01;10.90;99.90
7360;DHT22;3720;48.274;7.796;2022-11-20T10:32:36;11.30;99.90
7360;DHT22;3720;48.274;7.796;2022-11-20T10:35:18;11.70;99.90
7360;DHT22;3720;48.274;7.796;2022-11-20T10:37:56;11.70;99.90
7360;DHT22;3720;48.274;7.796;2022-11-20T10:40:34;11.50;99.90
7360;DHT22;3720;48.274;7.796;2022-11-20T10:43:11;11.20;99.90
7360;DHT22;3720;48.274;7.796;2022-11-20T10:45:53;10.90;99.90
7360;DHT22;3720;48.274;7.796;2022-11-20T10:48:28;10.60;99.90
7360;DHT22;3720;48.274;7.796;2022-11-20T10:51:12;10.50;99.90
7360;DHT22;3720;48.274;7.796;2022-11-20T10:53:51;10.30;99.90
7360;DHT22;3720;48.274;7.796;2022-11-20T10:56:31;10.20;99.90
7360;DHT22;3720;48.274;7.796;2022-11-20T10:59:33;10.30;99.90
7360;DHT22;3720;48.274;7.796;2022-11-20T11:02:19;10.60;99.90
7360;DHT22;3720;48.274;7.796;2022-11-20T11:04:53;10.80;99.90
7360;DHT22;3720;48.274;7.796;2022-11-20T11:07:32;10.80;99.90
7360;DHT22;3720;48.274;7.796;2022-11-20T11:10:14;10.70;99.90
7360;DHT22;3720;48.274;7.796;2022-11-20T11:12:47;10.80;99.90
7360;DHT22;3720;48.274;7.796;2022-11-20T11:15:28;10.80;99.90
7360;DHT22;3720;48.274;7.796;2022-11-20T11:18:00;11.10;99.90
7360;DHT22;3720;48.274;7.796;2022-11-20T11:20:32;11.60;99.90
7360;DHT22;3720;48.274;7.796;2022-11-20T11:23:22;11.90;99.90
7360;DHT22;3720;48.274;7.796;2022-11-20T11:25:57;12.30;99.90
7360;DHT22;3720;48.274;7.796;2022-11-20T11:28:30;12.50;99.90
7360;DHT22;3720;48.274;7.796;2022-11-20T11:31:02;12.60;99.90
7360;DHT22;3720;48.274;7.796;2022-11-20T11:33:34;12.80;99.90
7360;DHT22;3720;48.274;7.796;2022-11-20T11:36:18;12.80;99.90
7360;DHT22;3720;48.274;7.796;2022-11-20T11:38:53;12.30;99.90
7360;DHT22;3720;48.274;7.796;2022-11-20T11:41:28;12.20;99.90
7360;DHT22;3720;48.274;7.796;2022-11-20T11:44:15;11.80;99.90
7360;DHT22;3720;48.274;7.796;2022-11-20T11:47:09;11.30;99.90
7360;DHT22;3720;48.274;7.796;2022-11-20T11:49:42;11.20;99.90
7360;DHT22;3720;48.274;7.796;2022-11-20T11:52:16;11.30;99.90
7360;DHT22;3720;48.274;7.796;2022-11-20T11:54:53;11.30;99.90
7360;DHT22;3720;48.274;7.796;2022-11-20T11:57:29;11.20;99.90
7360;DHT22;3720;48.274;7.796;2022-11-20T12:00:08;11.10;99.90
7360;DHT22;3720;48.274;7.796;2022-11-20T12:02:46;11.00;99.90
7360;DHT22;3720;48.274;7.796;2022-11-20T12:05:22;11.00;99.90
7360;DHT22;3720;48.274;7.796;2022-11-20T12:07:57;10.90;99.90
7360;DHT22;3720;48.274;7.796;2022-11-20T12:10:40;11.00;99.90
7360;DHT22;3720;48.274;7.796;2022-11-20T12:13:32;10.90;99.90
7360;DHT22;3720;48.274;7.796;2022-11-20T12:16:12;10.80;99.90
7360;DHT22;3720;48.274;7.796;2022-11-20T12:18:46;10.70;99.90
7360;DHT22;3720;48.274;7.796;2022-11-20T12:21:25;10.70;99.90
7360;DHT22;3720;48.274;7.796;2022-11-20T12:24:11;10.60;99.90
7360;DHT22;3720;48.274;7.796;2022-11-20T12:26:57;10.70;99.90
7360;DHT22;3720;48.274;7.796;2022-11-20T12:29:41;10.70;99.90
7360;DHT22;3720;48.274;7.796;2022-11-20T12:32:38;10.70;99.90
7360;DHT22;3720;48.274;7.796;2022-11-20T12:35:29;10.80;99.90
7360;DHT22;3720;48.274;7.796;2022-11-20T12:38:22;11.30;99.90
7360;DHT22;3720;48.274;7.796;2022-11-20T12:41:04;11.90;99.90
7360;DHT22;3720;48.274;7.796;2022-11-20T12:43:43;12.10;99.90
7360;DHT22;3720;48.274;7.796;2022-11-20T12:46:38;11.90;99.90
7360;DHT22;3720;48.274;7.796;2022-11-20T12:49:25;11.70;99.90
7360;DHT22;3720;48.274;7.796;2022-11-20T12:52:15;11.50;99.90
7360;DHT22;3720;48.274;7.796;2022-11-20T12:57:58;11.20;99.90
7360;DHT22;3720;48.274;7.796;2022-11-20T13:00:34;11.10;99.90
7360;DHT22;3720;48.274;7.796;2022-11-20T13:06:11;11.00;99.90
7360;DHT22;3720;48.274;7.796;2022-11-20T13:08:48;10.90;99.90
7360;DHT22;3720;48.274;7.796;2022-11-20T13:11:27;10.90;99.90
7360;DHT22;3720;48.274;7.796;2022-11-20T13:14:16;10.90;99.90
7360;DHT22;3720;48.274;7.796;2022-11-20T13:16:57;11.00;99.90
7360;DHT22;3720;48.274;7.796;2022-11-20T13:19:30;11.00;99.90
7360;DHT22;3720;48.274;7.796;2022-11-20T13:22:02;11.10;99.90
7360;DHT22;3720;48.274;7.796;2022-11-20T13:24:34;11.20;99.90
7360;DHT22;3720;48.274;7.796;2022-11-20T13:27:18;11.20;99.90
7360;DHT22;3720;48.274;7.796;2022-11-20T13:30:00;11.50;99.90
7360;DHT22;3720;48.274;7.796;2022-11-20T13:32:34;11.70;99.90
7360;DHT22;3720;48.274;7.796;2022-11-20T13:35:09;11.80;99.90
7360;DHT22;3720;48.274;7.796;2022-11-20T13:37:40;11.60;99.90
7360;DHT22;3720;48.274;7.796;2022-11-20T13:40:20;11.50;99.90
7360;DHT22;3720;48.274;7.796;2022-11-20T13:43:04;11.20;99.90
7360;DHT22;3720;48.274;7.796;2022-11-20T13:45:38;11.10;99.90
7360;DHT22;3720;48.274;7.796;2022-11-20T13:48:28;11.10;99.90
7360;DHT22;3720;48.274;7.796;2022-11-20T13:51:08;11.00;99.90
7360;DHT22;3720;48.274;7.796;2022-11-20T13:53:57;11.00;99.90
7360;DHT22;3720;48.274;7.796;2022-11-20T13:56:40;11.10;99.90
7360;DHT22;3720;48.274;7.796;2022-11-20T13:59:28;11.00;99.90
7360;DHT22;3720;48.274;7.796;2022-11-20T14:02:10;11.00;99.90
7360;DHT22;3720;48.274;7.796;2022-11-20T14:04:46;11.00;99.90
7360;DHT22;3720;48.274;7.796;2022-11-20T14:07:21;10.90;99.90
7360;DHT22;3720;48.274;7.796;2022-11-20T14:09:56;10.90;99.90
7360;DHT22;3720;48.274;7.796;2022-11-20T14:12:30;10.80;99.90
7360;DHT22;3720;48.274;7.796;2022-11-20T14:15:02;10.70;99.90
7360;DHT22;3720;48.274;7.796;2022-11-20T14:17:35;10.60;99.90
7360;DHT22;3720;48.274;7.796;2022-11-20T14:20:14;10.50;99.90
7360;DHT22;3720;48.274;7.796;2022-11-20T14:22:49;10.50;99.90
7360;DHT22;3720;48.274;7.796;2022-11-20T14:25:23;10.40;99.90
7360;DHT22;3720;48.274;7.796;2022-11-20T14:27:59;10.40;99.90
7360;DHT22;3720;48.274;7.796;2022-11-20T14:30:38;10.30;99.90
7360;DHT22;3720;48.274;7.796;2022-11-20T14:33:14;10.20;99.90
7360;DHT22;3720;48.274;7.796;2022-11-20T14:35:50;10.20;99.90
7360;DHT22;3720;48.274;7.796;2022-11-20T14:38:25;10.10;99.90
7360;DHT22;3720;48.274;7.796;2022-11-20T14:41:06;10.00;99.90
7360;DHT22;3720;48.274;7.796;2022-11-20T14:43:39;10.00;99.90
7360;DHT22;3720;48.274;7.796;2022-11-20T14:46:11;9.90;99.90
7360;DHT22;3720;48.274;7.796;2022-11-20T14:48:46;9.80;99.90
7360;DHT22;3720;48.274;7.796;2022-11-20T14:51:30;9.80;99.90
7360;DHT22;3720;48.274;7.796;2022-11-20T14:54:10;9.80;99.90
7360;DHT22;3720;48.274;7.796;2022-11-20T14:56:53;9.80;99.90
7360;DHT22;3720;48.274;7.796;2022-11-20T14:59:25;9.80;99.90
7360;DHT22;3720;48.274;7.796;2022-11-20T15:01:59;9.70;99.90
7360;DHT22;3720;48.274;7.796;2022-11-20T15:04:32;9.70;99.90
7360;DHT22;3720;48.274;7.796;2022-11-20T15:07:05;9.70;99.90
7360;DHT22;3720;48.274;7.796;2022-11-20T15:09:37;9.60;99.90
7360;DHT22;3720;48.274;7.796;2022-11-20T15:12:17;9.60;99.90
7360;DHT22;3720;48.274;7.796;2022-11-20T15:14:49;9.50;99.90
7360;DHT22;3720;48.274;7.796;2022-11-20T15:17:21;9.50;99.90
7360;DHT22;3720;48.274;7.796;2022-11-20T15:19:54;9.50;99.90
7360;DHT22;3720;48.274;7.796;2022-11-20T15:22:28;9.40;99.90
7360;DHT22;3720;48.274;7.796;2022-11-20T15:24:59;9.40;99.90
7360;DHT22;3720;48.274;7.796;2022-11-20T15:27:31;9.40;99.90
7360;DHT22;3720;48.274;7.796;2022-11-20T15:30:12;9.40;99.90
7360;DHT22;3720;48.274;7.796;2022-11-20T15:32:45;9.40;99.90
7360;DHT22;3720;48.274;7.796;2022-11-20T15:35:17;9.40;99.90
7360;DHT22;3720;48.274;7.796;2022-11-20T15:37:50;9.30;99.90
7360;DHT22;3720;48.274;7.796;2022-11-20T15:40:22;9.20;99.90
7360;DHT22;3720;48.274;7.796;2022-11-20T15:42:54;9.30;99.90
7360;DHT22;3720;48.274;7.796;2022-11-20T15:45:38;9.20;99.90
7360;DHT22;3720;48.274;7.796;2022-11-20T15:48:14;9.20;99.90
7360;DHT22;3720;48.274;7.796;2022-11-20T15:50:52;9.20;99.90
7360;DHT22;3720;48.274;7.796;2022-11-20T15:53:28;9.10;99.90
7360;DHT22;3720;48.274;7.796;2022-11-20T15:56:00;9.20;99.90
7360;DHT22;3720;48.274;7.796;2022-11-20T15:58:32;9.10;99.90
7360;DHT22;3720;48.274;7.796;2022-11-20T16:01:04;9.10;99.90
7360;DHT22;3720;48.274;7.796;2022-11-20T16:03:36;9.10;99.90
7360;DHT22;3720;48.274;7.796;2022-11-20T16:06:08;9.10;99.90
7360;DHT22;3720;48.274;7.796;2022-11-20T16:08:41;9.10;99.90
7360;DHT22;3720;48.274;7.796;2022-11-20T16:11:15;9.00;99.90
7360;DHT22;3720;48.274;7.796;2022-11-20T16:13:47;9.00;99.90
7360;DHT22;3720;48.274;7.796;2022-11-20T16:16:37;9.00;99.90
7360;DHT22;3720;48.274;7.796;2022-11-20T16:19:11;9.00;99.90
7360;DHT22;3720;48.274;7.796;2022-11-20T16:21:43;9.00;99.90
7360;DHT22;3720;48.274;7.796;2022-11-20T16:24:16;9.00;99.90
7360;DHT22;3720;48.274;7.796;2022-11-20T16:26:48;9.00;99.90
7360;DHT22;3720;48.274;7.796;2022-11-20T16:29:20;8.90;99.90
7360;DHT22;3720;48.274;7.796;2022-11-20T16:31:52;8.90;99.90
7360;DHT22;3720;48.274;7.796;2022-11-20T16:34:24;8.90;99.90
7360;DHT22;3720;48.274;7.796;2022-11-20T16:36:56;8.90;99.90
7360;DHT22;3720;48.274;7.796;2022-11-20T16:39:29;9.00;99.90
7360;DHT22;3720;48.274;7.796;2022-11-20T16:42:03;9.00;99.90
7360;DHT22;3720;48.274;7.796;2022-11-20T16:44:35;9.00;99.90
7360;DHT22;3720;48.274;7.796;2022-11-20T16:47:07;9.00;99.90
7360;DHT22;3720;48.274;7.796;2022-11-20T16:49:39;9.00;99.90
7360;DHT22;3720;48.274;7.796;2022-11-20T16:52:11;9.00;99.90
7360;DHT22;3720;48.274;7.796;2022-11-20T16:54:44;9.00;99.90
7360;DHT22;3720;48.274;7.796;2022-11-20T16:57:16;9.00;99.90
7360;DHT22;3720;48.274;7.796;2022-11-20T16:59:48;9.00;99.90
7360;DHT22;3720;48.274;7.796;2022-11-20T17:02:20;9.00;99.90
7360;DHT22;3720;48.274;7.796;2022-11-20T17:04:52;9.00;99.90
7360;DHT22;3720;48.274;7.796;2022-11-20T17:07:24;9.00;99.90
7360;DHT22;3720;48.274;7.796;2022-11-20T17:09:57;9.00;99.90
7360;DHT22;3720;48.274;7.796;2022-11-20T17:12:30;9.00;99.90